Terminal Aerodrome Forecast
Issued by NWS Charleston, WV

Current Version | Previous Version | Graphics & Text | Print | Product List | Glossary On
Versions: 1 2 3 4 5 6 7 8 9 10 11 12 13 14 15 16 17 18 19 20 21 22 23 24 25 26 27 28 29
072
FTUS41 KRLX 220909 AAA
TAFPKB
TAF AMD
KPKB 220909Z 2209/2306 00000KT 1SM BR BKN002
     FM221100 VRB02KT 3SM BR VCSH BKN007
     FM221400 19004KT 4SM TSRA BKN025CB
      TEMPO 2214/2216 2SM +TSRA OVC015CB
     FM221800 22007KT P6SM VCTS SCT050CB BKN100=

USA.gov is the U.S. government's official web portal to all federal, state and local government web resources and services.